YPPF weather

Adelaide Parafield Airport
Adelaide, South Australia, Australia

Public forecast

Using degrees Celsius for public forecast. Weather courtesy of forecast.io.

METAR (pilot weather report)

Closest report is Adelaide International Airport, 10.4 nm (19.3 km) SSW. Retrieved 2017/05/23 16:30 UTC (12 minutes ago):

YPAD 231630Z 27014KT 9999 FEW012 16/13 Q1017 INTER 1630/1930 5000 SHRA SCT015 BKN020

TAF (pilot weather forecast)

Closest forecast is Adelaide International Airport, 10.4 nm (19.3 km) SSW. Retrieved 2017/05/23 12:00 UTC (5 hours ago):

TAF YPAD 231103Z 2312/2418 28012KT 9999 -SHRA SCT020 SCT030 FM240200 25010KT 9999 SCT035 FM240800 VRB05KT 9999 SCT030 INTER 2312/2324 5000 SHRA SCT015 BKN020